KTPH/TPH METAR and TAF weather

Enter ICAO airport designator
Station Type Date Time Source
KTPH METAR 2019/04/21 21:56 UTC NOAA

KTPH 212156Z AUTO 34023G32KT 10SM FEW095 14/M01 A3003 RMK AO2 PK WND 34037/2144 SLP138 T01391011


Station Type Date Time Source
KTPH Decoded METAR 2019/04/21 21:56 UTC NOAA

TONOPAH AIRPORT, NV, United States (KTPH) 38-02N 117-05W 1652M
Apr 21, 2019 - 05:56 PM EDT / 2019.04.21 2156 UTC
Wind: from the NNW (340 degrees) at 26 MPH (23 KT) gusting to 37 MPH (32 KT):0
Visibility: 10 mile(s):0
Sky conditions: mostly clear
Temperature: 57.0 F (13.9 C)
Dew Point: 30.0 F (-1.1 C)
Relative Humidity: 35%
Pressure (altimeter): 30.03 in. Hg (1016 hPa)
ob: KTPH 212156Z AUTO 34023G32KT 10SM FEW095 14/M01 A3003 RMK AO2 PK WND 34037/2144 SLP138 T01391011
cycle: 22

Station Type Date Time Source
KTPH TAF 2019/04/21 18:22 UTC NOAA

TAF KTPH 211720Z 2118/2218 34020G30KT P6SM VCSH BKN050
FM212100 34025G35KT P6SM SCT050
FM220500 35018G28KT P6SM SCT200
FM221700 34023G33KT P6SM SKC

Example: see airport list